sensor_id;sensor_type;location;lat;lon;timestamp;P1;durP1;ratioP1;P2;durP2;ratioP2
24373;SDS011;12498;50.880;12.096;2023-04-25T00:01:37;8.10;;;4.95;;
24373;SDS011;12498;50.880;12.096;2023-04-25T00:04:03;10.15;;;5.00;;
24373;SDS011;12498;50.880;12.096;2023-04-25T00:06:31;9.45;;;5.43;;
24373;SDS011;12498;50.880;12.096;2023-04-25T00:09:01;10.50;;;5.45;;
24373;SDS011;12498;50.880;12.096;2023-04-25T00:11:28;8.63;;;5.13;;
24373;SDS011;12498;50.880;12.096;2023-04-25T00:13:55;10.18;;;5.88;;
24373;SDS011;12498;50.880;12.096;2023-04-25T00:16:22;13.00;;;5.38;;
24373;SDS011;12498;50.880;12.096;2023-04-25T00:18:48;10.98;;;5.43;;
24373;SDS011;12498;50.880;12.096;2023-04-25T00:21:17;11.00;;;5.68;;
24373;SDS011;12498;50.880;12.096;2023-04-25T00:23:43;9.63;;;5.53;;
24373;SDS011;12498;50.880;12.096;2023-04-25T00:26:10;9.40;;;5.68;;
24373;SDS011;12498;50.880;12.096;2023-04-25T00:28:36;9.02;;;5.78;;
24373;SDS011;12498;50.880;12.096;2023-04-25T00:31:02;9.25;;;5.68;;
24373;SDS011;12498;50.880;12.096;2023-04-25T00:33:28;11.63;;;6.28;;
24373;SDS011;12498;50.880;12.096;2023-04-25T00:35:55;11.80;;;6.07;;
24373;SDS011;12498;50.880;12.096;2023-04-25T00:38:21;12.63;;;5.85;;
24373;SDS011;12498;50.880;12.096;2023-04-25T00:40:47;11.20;;;6.07;;
24373;SDS011;12498;50.880;12.096;2023-04-25T00:43:12;9.32;;;5.68;;
24373;SDS011;12498;50.880;12.096;2023-04-25T00:45:39;10.98;;;6.20;;
24373;SDS011;12498;50.880;12.096;2023-04-25T00:48:04;10.93;;;5.68;;
24373;SDS011;12498;50.880;12.096;2023-04-25T00:50:30;9.07;;;6.20;;
24373;SDS011;12498;50.880;12.096;2023-04-25T00:52:58;12.30;;;6.20;;
24373;SDS011;12498;50.880;12.096;2023-04-25T00:55:24;10.75;;;6.05;;
24373;SDS011;12498;50.880;12.096;2023-04-25T00:57:50;10.25;;;6.22;;
24373;SDS011;12498;50.880;12.096;2023-04-25T01:00:15;10.38;;;5.90;;
24373;SDS011;12498;50.880;12.096;2023-04-25T01:02:42;14.13;;;6.50;;
24373;SDS011;12498;50.880;12.096;2023-04-25T01:05:09;11.38;;;6.13;;
24373;SDS011;12498;50.880;12.096;2023-04-25T01:07:37;12.77;;;6.50;;
24373;SDS011;12498;50.880;12.096;2023-04-25T01:10:03;12.25;;;6.60;;
24373;SDS011;12498;50.880;12.096;2023-04-25T01:12:29;12.52;;;6.32;;
24373;SDS011;12498;50.880;12.096;2023-04-25T01:14:55;12.43;;;6.68;;
24373;SDS011;12498;50.880;12.096;2023-04-25T01:17:21;11.93;;;6.78;;
24373;SDS011;12498;50.880;12.096;2023-04-25T01:19:47;13.80;;;6.47;;
24373;SDS011;12498;50.880;12.096;2023-04-25T01:22:14;11.85;;;6.20;;
24373;SDS011;12498;50.880;12.096;2023-04-25T01:24:39;8.15;;;5.82;;
24373;SDS011;12498;50.880;12.096;2023-04-25T01:27:06;13.90;;;6.25;;
24373;SDS011;12498;50.880;12.096;2023-04-25T01:29:32;9.85;;;6.03;;
24373;SDS011;12498;50.880;12.096;2023-04-25T01:31:59;13.65;;;6.65;;
24373;SDS011;12498;50.880;12.096;2023-04-25T01:34:26;10.13;;;6.32;;
24373;SDS011;12498;50.880;12.096;2023-04-25T01:36:51;13.45;;;6.38;;
24373;SDS011;12498;50.880;12.096;2023-04-25T01:39:18;10.85;;;6.35;;
24373;SDS011;12498;50.880;12.096;2023-04-25T01:41:44;12.10;;;6.50;;
24373;SDS011;12498;50.880;12.096;2023-04-25T01:44:11;9.75;;;7.05;;
24373;SDS011;12498;50.880;12.096;2023-04-25T01:46:37;13.52;;;7.13;;
24373;SDS011;12498;50.880;12.096;2023-04-25T01:49:06;10.63;;;6.68;;
24373;SDS011;12498;50.880;12.096;2023-04-25T01:51:32;13.63;;;7.47;;
24373;SDS011;12498;50.880;12.096;2023-04-25T01:53:58;15.15;;;7.32;;
24373;SDS011;12498;50.880;12.096;2023-04-25T01:56:24;12.50;;;6.70;;
24373;SDS011;12498;50.880;12.096;2023-04-25T01:58:50;12.23;;;7.43;;
24373;SDS011;12498;50.880;12.096;2023-04-25T02:01:16;14.07;;;7.35;;
24373;SDS011;12498;50.880;12.096;2023-04-25T02:03:42;11.82;;;7.45;;
24373;SDS011;12498;50.880;12.096;2023-04-25T02:06:08;13.80;;;7.75;;
24373;SDS011;12498;50.880;12.096;2023-04-25T02:08:34;15.43;;;7.68;;
24373;SDS011;12498;50.880;12.096;2023-04-25T02:10:59;16.60;;;8.13;;
24373;SDS011;12498;50.880;12.096;2023-04-25T02:13:25;14.80;;;7.75;;
24373;SDS011;12498;50.880;12.096;2023-04-25T02:15:51;15.05;;;7.75;;
24373;SDS011;12498;50.880;12.096;2023-04-25T02:18:16;14.57;;;7.38;;
24373;SDS011;12498;50.880;12.096;2023-04-25T02:20:42;12.98;;;7.60;;
24373;SDS011;12498;50.880;12.096;2023-04-25T02:23:09;13.80;;;7.65;;
24373;SDS011;12498;50.880;12.096;2023-04-25T02:25:34;12.23;;;7.55;;
24373;SDS011;12498;50.880;12.096;2023-04-25T02:28:00;12.48;;;7.47;;
24373;SDS011;12498;50.880;12.096;2023-04-25T02:30:26;13.75;;;7.78;;
24373;SDS011;12498;50.880;12.096;2023-04-25T02:32:52;14.57;;;7.07;;
24373;SDS011;12498;50.880;12.096;2023-04-25T02:35:17;11.45;;;7.10;;
24373;SDS011;12498;50.880;12.096;2023-04-25T02:37:43;13.93;;;7.68;;
24373;SDS011;12498;50.880;12.096;2023-04-25T02:40:09;14.80;;;7.95;;
24373;SDS011;12498;50.880;12.096;2023-04-25T02:42:35;14.82;;;8.00;;
24373;SDS011;12498;50.880;12.096;2023-04-25T02:45:01;11.85;;;7.53;;
24373;SDS011;12498;50.880;12.096;2023-04-25T02:47:27;15.65;;;7.72;;
24373;SDS011;12498;50.880;12.096;2023-04-25T02:49:53;15.98;;;8.52;;
24373;SDS011;12498;50.880;12.096;2023-04-25T02:52:18;14.65;;;8.80;;
24373;SDS011;12498;50.880;12.096;2023-04-25T02:54:44;16.02;;;8.07;;
24373;SDS011;12498;50.880;12.096;2023-04-25T02:57:10;15.45;;;8.30;;
24373;SDS011;12498;50.880;12.096;2023-04-25T02:59:35;12.57;;;8.10;;
24373;SDS011;12498;50.880;12.096;2023-04-25T03:02:01;12.80;;;8.75;;
24373;SDS011;12498;50.880;12.096;2023-04-25T03:04:26;11.75;;;8.18;;
24373;SDS011;12498;50.880;12.096;2023-04-25T03:06:52;14.77;;;9.10;;
24373;SDS011;12498;50.880;12.096;2023-04-25T03:09:18;12.70;;;7.90;;
24373;SDS011;12498;50.880;12.096;2023-04-25T03:11:45;13.07;;;8.15;;
24373;SDS011;12498;50.880;12.096;2023-04-25T03:14:11;18.17;;;7.85;;
24373;SDS011;12498;50.880;12.096;2023-04-25T03:16:37;13.75;;;7.88;;
24373;SDS011;12498;50.880;12.096;2023-04-25T03:19:03;14.38;;;8.00;;
24373;SDS011;12498;50.880;12.096;2023-04-25T03:21:29;13.15;;;7.57;;
24373;SDS011;12498;50.880;12.096;2023-04-25T03:23:57;15.20;;;7.88;;
24373;SDS011;12498;50.880;12.096;2023-04-25T03:26:23;14.45;;;8.02;;
24373;SDS011;12498;50.880;12.096;2023-04-25T03:28:48;15.10;;;8.65;;
24373;SDS011;12498;50.880;12.096;2023-04-25T03:31:14;15.40;;;7.97;;
24373;SDS011;12498;50.880;12.096;2023-04-25T03:33:40;13.35;;;8.13;;
24373;SDS011;12498;50.880;12.096;2023-04-25T03:36:06;14.60;;;7.90;;
24373;SDS011;12498;50.880;12.096;2023-04-25T03:38:32;11.27;;;7.80;;
24373;SDS011;12498;50.880;12.096;2023-04-25T03:40:57;11.38;;;7.65;;
24373;SDS011;12498;50.880;12.096;2023-04-25T03:43:23;13.27;;;7.93;;
24373;SDS011;12498;50.880;12.096;2023-04-25T03:45:49;13.30;;;7.22;;
24373;SDS011;12498;50.880;12.096;2023-04-25T03:48:14;11.70;;;7.43;;
24373;SDS011;12498;50.880;12.096;2023-04-25T03:50:40;14.57;;;7.53;;
24373;SDS011;12498;50.880;12.096;2023-04-25T03:53:06;11.43;;;7.05;;
24373;SDS011;12498;50.880;12.096;2023-04-25T03:55:31;15.88;;;7.78;;
24373;SDS011;12498;50.880;12.096;2023-04-25T03:57:57;14.13;;;7.00;;
24373;SDS011;12498;50.880;12.096;2023-04-25T04:00:23;12.07;;;6.57;;
24373;SDS011;12498;50.880;12.096;2023-04-25T04:02:49;12.77;;;7.35;;
24373;SDS011;12498;50.880;12.096;2023-04-25T04:05:15;14.07;;;8.10;;
24373;SDS011;12498;50.880;12.096;2023-04-25T04:07:41;10.95;;;7.80;;
24373;SDS011;12498;50.880;12.096;2023-04-25T04:10:07;14.50;;;6.82;;
24373;SDS011;12498;50.880;12.096;2023-04-25T04:12:37;12.88;;;6.72;;
24373;SDS011;12498;50.880;12.096;2023-04-25T04:15:04;10.32;;;6.18;;
24373;SDS011;12498;50.880;12.096;2023-04-25T04:17:30;12.75;;;6.13;;
24373;SDS011;12498;50.880;12.096;2023-04-25T04:19:56;12.48;;;6.53;;
24373;SDS011;12498;50.880;12.096;2023-04-25T04:22:23;11.05;;;6.10;;
24373;SDS011;12498;50.880;12.096;2023-04-25T04:24:49;9.82;;;6.18;;
24373;SDS011;12498;50.880;12.096;2023-04-25T04:27:15;13.80;;;6.85;;
24373;SDS011;12498;50.880;12.096;2023-04-25T04:29:45;10.27;;;5.97;;
24373;SDS011;12498;50.880;12.096;2023-04-25T04:32:11;14.60;;;6.43;;
24373;SDS011;12498;50.880;12.096;2023-04-25T04:34:38;16.88;;;6.03;;
24373;SDS011;12498;50.880;12.096;2023-04-25T04:37:04;14.75;;;6.35;;
24373;SDS011;12498;50.880;12.096;2023-04-25T04:39:32;12.40;;;6.20;;
24373;SDS011;12498;50.880;12.096;2023-04-25T04:42:01;9.85;;;5.65;;
24373;SDS011;12498;50.880;12.096;2023-04-25T04:44:26;17.80;;;6.97;;
24373;SDS011;12498;50.880;12.096;2023-04-25T04:46:53;15.45;;;7.20;;
24373;SDS011;12498;50.880;12.096;2023-04-25T04:49:19;23.38;;;8.25;;
24373;SDS011;12498;50.880;12.096;2023-04-25T04:51:45;22.02;;;7.95;;
24373;SDS011;12498;50.880;12.096;2023-04-25T04:54:12;13.98;;;6.63;;
24373;SDS011;12498;50.880;12.096;2023-04-25T04:56:38;18.00;;;6.80;;
24373;SDS011;12498;50.880;12.096;2023-04-25T04:59:04;18.05;;;7.07;;
24373;SDS011;12498;50.880;12.096;2023-04-25T05:01:30;13.80;;;6.07;;
24373;SDS011;12498;50.880;12.096;2023-04-25T05:03:56;11.07;;;5.80;;
24373;SDS011;12498;50.880;12.096;2023-04-25T05:06:25;11.73;;;5.65;;
24373;SDS011;12498;50.880;12.096;2023-04-25T05:08:54;11.48;;;6.28;;
24373;SDS011;12498;50.880;12.096;2023-04-25T05:11:20;12.20;;;5.88;;
24373;SDS011;12498;50.880;12.096;2023-04-25T05:13:46;14.65;;;6.57;;
24373;SDS011;12498;50.880;12.096;2023-04-25T05:16:12;12.82;;;6.35;;
24373;SDS011;12498;50.880;12.096;2023-04-25T05:18:39;11.98;;;6.10;;
24373;SDS011;12498;50.880;12.096;2023-04-25T05:21:05;8.70;;;5.55;;
24373;SDS011;12498;50.880;12.096;2023-04-25T05:23:32;15.20;;;6.68;;
24373;SDS011;12498;50.880;12.096;2023-04-25T05:25:58;13.02;;;6.32;;
24373;SDS011;12498;50.880;12.096;2023-04-25T05:28:27;13.77;;;6.13;;
24373;SDS011;12498;50.880;12.096;2023-04-25T05:30:53;13.55;;;6.38;;
24373;SDS011;12498;50.880;12.096;2023-04-25T05:33:19;14.07;;;6.55;;
24373;SDS011;12498;50.880;12.096;2023-04-25T05:35:46;13.00;;;6.10;;
24373;SDS011;12498;50.880;12.096;2023-04-25T05:38:12;12.40;;;6.40;;
24373;SDS011;12498;50.880;12.096;2023-04-25T05:40:37;12.70;;;5.30;;
24373;SDS011;12498;50.880;12.096;2023-04-25T05:43:03;13.00;;;5.90;;
24373;SDS011;12498;50.880;12.096;2023-04-25T05:45:29;12.13;;;5.85;;
24373;SDS011;12498;50.880;12.096;2023-04-25T05:47:54;9.73;;;5.90;;
24373;SDS011;12498;50.880;12.096;2023-04-25T05:50:20;14.20;;;6.38;;
24373;SDS011;12498;50.880;12.096;2023-04-25T05:52:46;13.98;;;6.22;;
24373;SDS011;12498;50.880;12.096;2023-04-25T05:55:12;13.40;;;6.60;;
24373;SDS011;12498;50.880;12.096;2023-04-25T05:57:38;11.30;;;6.38;;
24373;SDS011;12498;50.880;12.096;2023-04-25T06:00:06;14.32;;;6.25;;
24373;SDS011;12498;50.880;12.096;2023-04-25T06:02:34;12.77;;;6.45;;
24373;SDS011;12498;50.880;12.096;2023-04-25T06:05:00;13.43;;;5.63;;
24373;SDS011;12498;50.880;12.096;2023-04-25T06:07:28;10.55;;;5.78;;
24373;SDS011;12498;50.880;12.096;2023-04-25T06:09:54;11.82;;;5.95;;
24373;SDS011;12498;50.880;12.096;2023-04-25T06:12:20;9.48;;;5.68;;
24373;SDS011;12498;50.880;12.096;2023-04-25T06:14:46;12.50;;;6.18;;
24373;SDS011;12498;50.880;12.096;2023-04-25T06:17:13;15.32;;;6.18;;
24373;SDS011;12498;50.880;12.096;2023-04-25T06:19:38;9.82;;;5.00;;
24373;SDS011;12498;50.880;12.096;2023-04-25T06:22:04;14.27;;;6.78;;
24373;SDS011;12498;50.880;12.096;2023-04-25T06:24:32;22.77;;;6.68;;
24373;SDS011;12498;50.880;12.096;2023-04-25T06:26:58;14.27;;;6.30;;
24373;SDS011;12498;50.880;12.096;2023-04-25T06:29:23;10.65;;;5.97;;
24373;SDS011;12498;50.880;12.096;2023-04-25T06:31:49;11.27;;;5.53;;
24373;SDS011;12498;50.880;12.096;2023-04-25T06:34:15;12.07;;;5.13;;
24373;SDS011;12498;50.880;12.096;2023-04-25T06:36:41;13.40;;;5.18;;
24373;SDS011;12498;50.880;12.096;2023-04-25T06:39:10;14.32;;;5.40;;
24373;SDS011;12498;50.880;12.096;2023-04-25T06:41:38;13.10;;;5.68;;
24373;SDS011;12498;50.880;12.096;2023-04-25T06:44:04;13.75;;;5.32;;
24373;SDS011;12498;50.880;12.096;2023-04-25T06:46:30;8.68;;;4.50;;
24373;SDS011;12498;50.880;12.096;2023-04-25T06:48:57;10.38;;;4.63;;
24373;SDS011;12498;50.880;12.096;2023-04-25T06:51:23;11.18;;;4.45;;
24373;SDS011;12498;50.880;12.096;2023-04-25T06:53:49;9.73;;;4.03;;
24373;SDS011;12498;50.880;12.096;2023-04-25T06:56:15;9.85;;;4.35;;
24373;SDS011;12498;50.880;12.096;2023-04-25T06:58:41;7.22;;;3.95;;
24373;SDS011;12498;50.880;12.096;2023-04-25T07:01:07;13.38;;;5.18;;
24373;SDS011;12498;50.880;12.096;2023-04-25T07:03:33;8.35;;;4.57;;
24373;SDS011;12498;50.880;12.096;2023-04-25T07:05:58;12.15;;;4.75;;
24373;SDS011;12498;50.880;12.096;2023-04-25T07:08:25;9.70;;;5.07;;
24373;SDS011;12498;50.880;12.096;2023-04-25T07:10:51;10.75;;;4.72;;
24373;SDS011;12498;50.880;12.096;2023-04-25T07:13:17;9.52;;;4.80;;
24373;SDS011;12498;50.880;12.096;2023-04-25T07:15:43;8.45;;;4.88;;
24373;SDS011;12498;50.880;12.096;2023-04-25T07:18:09;12.07;;;4.90;;
24373;SDS011;12498;50.880;12.096;2023-04-25T07:20:35;9.90;;;4.57;;
24373;SDS011;12498;50.880;12.096;2023-04-25T07:23:01;10.98;;;4.85;;
24373;SDS011;12498;50.880;12.096;2023-04-25T07:25:26;11.50;;;4.32;;
24373;SDS011;12498;50.880;12.096;2023-04-25T07:27:52;11.38;;;4.45;;
24373;SDS011;12498;50.880;12.096;2023-04-25T07:30:17;9.43;;;4.60;;
24373;SDS011;12498;50.880;12.096;2023-04-25T07:32:43;7.32;;;4.80;;
24373;SDS011;12498;50.880;12.096;2023-04-25T07:35:10;11.43;;;4.55;;
24373;SDS011;12498;50.880;12.096;2023-04-25T07:37:36;14.02;;;4.97;;
24373;SDS011;12498;50.880;12.096;2023-04-25T07:40:02;11.63;;;4.80;;
24373;SDS011;12498;50.880;12.096;2023-04-25T07:42:32;12.13;;;4.78;;
24373;SDS011;12498;50.880;12.096;2023-04-25T07:44:59;8.10;;;4.80;;
24373;SDS011;12498;50.880;12.096;2023-04-25T07:47:26;14.55;;;4.80;;
24373;SDS011;12498;50.880;12.096;2023-04-25T07:49:52;16.70;;;4.70;;
24373;SDS011;12498;50.880;12.096;2023-04-25T07:52:18;10.45;;;4.68;;
24373;SDS011;12498;50.880;12.096;2023-04-25T07:54:44;9.90;;;4.15;;
24373;SDS011;12498;50.880;12.096;2023-04-25T07:57:10;8.63;;;4.53;;
24373;SDS011;12498;50.880;12.096;2023-04-25T07:59:36;10.27;;;4.97;;
24373;SDS011;12498;50.880;12.096;2023-04-25T08:02:02;8.75;;;4.57;;
24373;SDS011;12498;50.880;12.096;2023-04-25T08:04:28;13.10;;;4.55;;
24373;SDS011;12498;50.880;12.096;2023-04-25T08:06:54;9.65;;;4.40;;
24373;SDS011;12498;50.880;12.096;2023-04-25T08:09:20;7.93;;;4.20;;
24373;SDS011;12498;50.880;12.096;2023-04-25T08:11:46;10.38;;;4.47;;
24373;SDS011;12498;50.880;12.096;2023-04-25T08:14:13;12.32;;;4.70;;
24373;SDS011;12498;50.880;12.096;2023-04-25T08:16:39;9.43;;;4.25;;
24373;SDS011;12498;50.880;12.096;2023-04-25T08:19:05;9.65;;;4.60;;
24373;SDS011;12498;50.880;12.096;2023-04-25T08:21:31;9.80;;;4.22;;
24373;SDS011;12498;50.880;12.096;2023-04-25T08:23:57;9.48;;;4.30;;
24373;SDS011;12498;50.880;12.096;2023-04-25T08:26:24;13.15;;;5.13;;
24373;SDS011;12498;50.880;12.096;2023-04-25T08:28:50;10.55;;;4.70;;
24373;SDS011;12498;50.880;12.096;2023-04-25T08:31:16;8.80;;;4.88;;
24373;SDS011;12498;50.880;12.096;2023-04-25T08:33:42;9.73;;;4.65;;
24373;SDS011;12498;50.880;12.096;2023-04-25T08:36:10;8.80;;;5.05;;
24373;SDS011;12498;50.880;12.096;2023-04-25T08:38:36;8.20;;;4.55;;
24373;SDS011;12498;50.880;12.096;2023-04-25T08:41:02;10.35;;;4.45;;
24373;SDS011;12498;50.880;12.096;2023-04-25T08:43:28;10.30;;;5.00;;
24373;SDS011;12498;50.880;12.096;2023-04-25T08:45:57;11.75;;;5.22;;
24373;SDS011;12498;50.880;12.096;2023-04-25T08:48:24;8.52;;;4.72;;
24373;SDS011;12498;50.880;12.096;2023-04-25T08:50:53;11.23;;;5.00;;
24373;SDS011;12498;50.880;12.096;2023-04-25T08:53:21;9.77;;;5.15;;
24373;SDS011;12498;50.880;12.096;2023-04-25T08:55:47;8.18;;;4.63;;
24373;SDS011;12498;50.880;12.096;2023-04-25T08:58:14;7.63;;;4.63;;
24373;SDS011;12498;50.880;12.096;2023-04-25T09:00:41;11.70;;;5.25;;
24373;SDS011;12498;50.880;12.096;2023-04-25T09:03:06;13.30;;;5.35;;
24373;SDS011;12498;50.880;12.096;2023-04-25T09:05:32;12.70;;;5.28;;
24373;SDS011;12498;50.880;12.096;2023-04-25T09:07:59;9.70;;;4.88;;
24373;SDS011;12498;50.880;12.096;2023-04-25T09:10:26;8.75;;;4.85;;
24373;SDS011;12498;50.880;12.096;2023-04-25T09:13:08;8.75;;;4.90;;
24373;SDS011;12498;50.880;12.096;2023-04-25T09:15:46;8.18;;;4.60;;
24373;SDS011;12498;50.880;12.096;2023-04-25T09:18:13;10.68;;;4.53;;
24373;SDS011;12498;50.880;12.096;2023-04-25T09:20:41;12.27;;;4.88;;
24373;SDS011;12498;50.880;12.096;2023-04-25T09:23:07;7.72;;;4.80;;
24373;SDS011;12498;50.880;12.096;2023-04-25T09:25:37;11.65;;;5.43;;
24373;SDS011;12498;50.880;12.096;2023-04-25T09:28:08;7.65;;;5.40;;
24373;SDS011;12498;50.880;12.096;2023-04-25T09:30:34;8.20;;;4.80;;
24373;SDS011;12498;50.880;12.096;2023-04-25T09:33:07;10.35;;;5.00;;
24373;SDS011;12498;50.880;12.096;2023-04-25T09:35:38;8.23;;;4.63;;
24373;SDS011;12498;50.880;12.096;2023-04-25T09:38:08;7.05;;;4.53;;
24373;SDS011;12498;50.880;12.096;2023-04-25T09:40:38;9.05;;;4.43;;
24373;SDS011;12498;50.880;12.096;2023-04-25T09:43:08;9.93;;;4.32;;
24373;SDS011;12498;50.880;12.096;2023-04-25T09:45:40;13.02;;;4.65;;
24373;SDS011;12498;50.880;12.096;2023-04-25T09:48:06;10.55;;;5.45;;
24373;SDS011;12498;50.880;12.096;2023-04-25T09:50:32;11.02;;;4.88;;
24373;SDS011;12498;50.880;12.096;2023-04-25T09:53:04;8.90;;;4.75;;
24373;SDS011;12498;50.880;12.096;2023-04-25T09:55:32;8.75;;;4.55;;
24373;SDS011;12498;50.880;12.096;2023-04-25T09:57:59;6.72;;;4.88;;
24373;SDS011;12498;50.880;12.096;2023-04-25T10:00:27;9.07;;;4.57;;
24373;SDS011;12498;50.880;12.096;2023-04-25T10:02:54;14.07;;;4.97;;
24373;SDS011;12498;50.880;12.096;2023-04-25T10:05:20;10.65;;;5.10;;
24373;SDS011;12498;50.880;12.096;2023-04-25T10:07:47;8.70;;;4.85;;
24373;SDS011;12498;50.880;12.096;2023-04-25T10:10:13;8.25;;;4.78;;
24373;SDS011;12498;50.880;12.096;2023-04-25T10:12:40;9.10;;;5.45;;
24373;SDS011;12498;50.880;12.096;2023-04-25T10:15:08;14.27;;;6.18;;
24373;SDS011;12498;50.880;12.096;2023-04-25T10:17:34;12.15;;;5.75;;
24373;SDS011;12498;50.880;12.096;2023-04-25T10:20:03;11.05;;;5.57;;
24373;SDS011;12498;50.880;12.096;2023-04-25T10:22:34;12.35;;;5.97;;
24373;SDS011;12498;50.880;12.096;2023-04-25T10:25:00;15.23;;;5.88;;
24373;SDS011;12498;50.880;12.096;2023-04-25T10:27:29;7.43;;;4.18;;
24373;SDS011;12498;50.880;12.096;2023-04-25T10:30:07;8.77;;;5.55;;
24373;SDS011;12498;50.880;12.096;2023-04-25T10:32:37;9.35;;;5.97;;
24373;SDS011;12498;50.880;12.096;2023-04-25T10:35:13;14.15;;;6.05;;
24373;SDS011;12498;50.880;12.096;2023-04-25T10:40:25;10.70;;;5.95;;
24373;SDS011;12498;50.880;12.096;2023-04-25T10:42:51;8.95;;;5.40;;
24373;SDS011;12498;50.880;12.096;2023-04-25T10:45:19;13.27;;;6.30;;
24373;SDS011;12498;50.880;12.096;2023-04-25T10:47:45;16.25;;;6.57;;
24373;SDS011;12498;50.880;12.096;2023-04-25T10:50:13;8.95;;;6.03;;
24373;SDS011;12498;50.880;12.096;2023-04-25T10:52:41;11.32;;;6.05;;
24373;SDS011;12498;50.880;12.096;2023-04-25T10:55:07;11.70;;;5.68;;
24373;SDS011;12498;50.880;12.096;2023-04-25T10:57:40;8.45;;;5.45;;
24373;SDS011;12498;50.880;12.096;2023-04-25T11:00:07;10.38;;;5.40;;
24373;SDS011;12498;50.880;12.096;2023-04-25T11:02:37;12.77;;;6.40;;
24373;SDS011;12498;50.880;12.096;2023-04-25T11:05:03;11.38;;;5.15;;
24373;SDS011;12498;50.880;12.096;2023-04-25T11:07:34;10.60;;;5.30;;
24373;SDS011;12498;50.880;12.096;2023-04-25T11:10:01;14.85;;;5.68;;
24373;SDS011;12498;50.880;12.096;2023-04-25T11:12:29;12.73;;;4.90;;
24373;SDS011;12498;50.880;12.096;2023-04-25T11:15:02;14.25;;;4.93;;
24373;SDS011;12498;50.880;12.096;2023-04-25T11:17:28;12.93;;;4.03;;
24373;SDS011;12498;50.880;12.096;2023-04-25T11:19:55;12.75;;;4.82;;
24373;SDS011;12498;50.880;12.096;2023-04-25T11:22:21;7.95;;;3.78;;
24373;SDS011;12498;50.880;12.096;2023-04-25T11:24:47;7.30;;;3.97;;
24373;SDS011;12498;50.880;12.096;2023-04-25T11:27:13;8.88;;;3.97;;
24373;SDS011;12498;50.880;12.096;2023-04-25T11:29:40;11.30;;;4.90;;
24373;SDS011;12498;50.880;12.096;2023-04-25T11:32:06;11.68;;;4.47;;
24373;SDS011;12498;50.880;12.096;2023-04-25T11:34:33;8.65;;;4.00;;
24373;SDS011;12498;50.880;12.096;2023-04-25T11:37:03;9.50;;;4.18;;
24373;SDS011;12498;50.880;12.096;2023-04-25T11:39:29;11.40;;;4.30;;
24373;SDS011;12498;50.880;12.096;2023-04-25T11:41:55;11.85;;;5.15;;
24373;SDS011;12498;50.880;12.096;2023-04-25T11:44:22;12.70;;;5.00;;
24373;SDS011;12498;50.880;12.096;2023-04-25T11:46:48;9.35;;;4.53;;
24373;SDS011;12498;50.880;12.096;2023-04-25T11:49:15;8.02;;;4.60;;
24373;SDS011;12498;50.880;12.096;2023-04-25T11:51:43;17.33;;;5.90;;
24373;SDS011;12498;50.880;12.096;2023-04-25T11:54:10;23.70;;;6.03;;
24373;SDS011;12498;50.880;12.096;2023-04-25T11:56:36;11.20;;;5.72;;
24373;SDS011;12498;50.880;12.096;2023-04-25T11:59:04;14.50;;;4.97;;
24373;SDS011;12498;50.880;12.096;2023-04-25T12:01:34;16.02;;;5.28;;
24373;SDS011;12498;50.880;12.096;2023-04-25T12:04:16;17.50;;;5.53;;
24373;SDS011;12498;50.880;12.096;2023-04-25T12:06:43;13.60;;;4.35;;
24373;SDS011;12498;50.880;12.096;2023-04-25T12:09:13;11.25;;;4.28;;
24373;SDS011;12498;50.880;12.096;2023-04-25T12:12:01;14.50;;;4.72;;
24373;SDS011;12498;50.880;12.096;2023-04-25T12:14:31;14.13;;;4.43;;
24373;SDS011;12498;50.880;12.096;2023-04-25T12:16:58;11.48;;;4.30;;
24373;SDS011;12498;50.880;12.096;2023-04-25T12:19:24;12.27;;;4.32;;
24373;SDS011;12498;50.880;12.096;2023-04-25T12:21:51;14.98;;;4.38;;
24373;SDS011;12498;50.880;12.096;2023-04-25T12:24:18;10.80;;;3.45;;
24373;SDS011;12498;50.880;12.096;2023-04-25T12:29:15;13.40;;;3.30;;
24373;SDS011;12498;50.880;12.096;2023-04-25T12:31:42;17.63;;;3.33;;
24373;SDS011;12498;50.880;12.096;2023-04-25T12:34:08;14.48;;;3.15;;
24373;SDS011;12498;50.880;12.096;2023-04-25T12:36:34;18.60;;;3.67;;
24373;SDS011;12498;50.880;12.096;2023-04-25T12:39:00;19.77;;;4.30;;
24373;SDS011;12498;50.880;12.096;2023-04-25T12:41:29;15.48;;;3.92;;
24373;SDS011;12498;50.880;12.096;2023-04-25T12:43:55;17.98;;;4.10;;
24373;SDS011;12498;50.880;12.096;2023-04-25T12:46:21;15.52;;;3.35;;
24373;SDS011;12498;50.880;12.096;2023-04-25T12:48:48;15.80;;;3.80;;
24373;SDS011;12498;50.880;12.096;2023-04-25T12:51:14;16.65;;;3.85;;
24373;SDS011;12498;50.880;12.096;2023-04-25T12:53:40;17.38;;;3.65;;
24373;SDS011;12498;50.880;12.096;2023-04-25T12:56:07;12.15;;;3.10;;
24373;SDS011;12498;50.880;12.096;2023-04-25T12:58:33;14.98;;;3.10;;
24373;SDS011;12498;50.880;12.096;2023-04-25T13:00:59;9.48;;;2.95;;
24373;SDS011;12498;50.880;12.096;2023-04-25T13:03:25;12.38;;;2.75;;
24373;SDS011;12498;50.880;12.096;2023-04-25T13:05:51;13.90;;;3.05;;
24373;SDS011;12498;50.880;12.096;2023-04-25T13:08:20;9.88;;;2.85;;
24373;SDS011;12498;50.880;12.096;2023-04-25T13:10:47;10.30;;;2.47;;
24373;SDS011;12498;50.880;12.096;2023-04-25T13:13:13;11.05;;;3.50;;
24373;SDS011;12498;50.880;12.096;2023-04-25T13:15:39;11.63;;;2.85;;
24373;SDS011;12498;50.880;12.096;2023-04-25T13:18:05;10.45;;;3.35;;
24373;SDS011;12498;50.880;12.096;2023-04-25T13:20:31;12.52;;;2.95;;
24373;SDS011;12498;50.880;12.096;2023-04-25T13:22:57;13.45;;;3.67;;
24373;SDS011;12498;50.880;12.096;2023-04-25T13:25:23;11.30;;;3.53;;
24373;SDS011;12498;50.880;12.096;2023-04-25T13:27:49;18.42;;;3.58;;
24373;SDS011;12498;50.880;12.096;2023-04-25T13:30:15;14.32;;;3.20;;
24373;SDS011;12498;50.880;12.096;2023-04-25T13:32:41;16.55;;;3.67;;
24373;SDS011;12498;50.880;12.096;2023-04-25T13:35:08;12.68;;;3.00;;
24373;SDS011;12498;50.880;12.096;2023-04-25T13:37:35;16.73;;;2.20;;
24373;SDS011;12498;50.880;12.096;2023-04-25T13:40:02;15.70;;;3.20;;
24373;SDS011;12498;50.880;12.096;2023-04-25T13:42:30;12.00;;;2.93;;
24373;SDS011;12498;50.880;12.096;2023-04-25T13:44:56;19.35;;;3.50;;
24373;SDS011;12498;50.880;12.096;2023-04-25T13:47:21;11.52;;;3.15;;
24373;SDS011;12498;50.880;12.096;2023-04-25T13:49:48;14.85;;;3.10;;
24373;SDS011;12498;50.880;12.096;2023-04-25T13:52:14;13.68;;;2.75;;
24373;SDS011;12498;50.880;12.096;2023-04-25T13:54:40;11.00;;;2.50;;
24373;SDS011;12498;50.880;12.096;2023-04-25T13:57:06;13.35;;;3.00;;
24373;SDS011;12498;50.880;12.096;2023-04-25T13:59:32;13.50;;;2.97;;
24373;SDS011;12498;50.880;12.096;2023-04-25T14:01:58;11.80;;;3.33;;
24373;SDS011;12498;50.880;12.096;2023-04-25T14:04:23;11.98;;;2.78;;
24373;SDS011;12498;50.880;12.096;2023-04-25T14:06:50;12.80;;;3.03;;
24373;SDS011;12498;50.880;12.096;2023-04-25T14:09:16;9.57;;;3.10;;
24373;SDS011;12498;50.880;12.096;2023-04-25T14:11:42;12.32;;;2.92;;
24373;SDS011;12498;50.880;12.096;2023-04-25T14:14:08;14.30;;;3.30;;
24373;SDS011;12498;50.880;12.096;2023-04-25T14:16:34;15.25;;;2.92;;
24373;SDS011;12498;50.880;12.096;2023-04-25T14:19:00;11.43;;;2.97;;
24373;SDS011;12498;50.880;12.096;2023-04-25T14:21:26;14.77;;;3.30;;
24373;SDS011;12498;50.880;12.096;2023-04-25T14:23:53;10.88;;;3.22;;
24373;SDS011;12498;50.880;12.096;2023-04-25T14:26:19;15.52;;;3.20;;